createdAt,value
2022-10-31T00:01:12.871Z,0.13
2022-10-31T00:03:40.091Z,0.22
2022-10-31T00:06:07.786Z,0.17
2022-10-31T00:08:35.489Z,0.17
2022-10-31T00:11:02.690Z,0.19
2022-10-31T00:13:30.030Z,0.22
2022-10-31T00:15:57.271Z,0.24
2022-10-31T00:18:25.999Z,0.23
2022-10-31T00:21:00.531Z,0.25
2022-10-31T00:23:27.837Z,0.20
2022-10-31T00:25:55.351Z,0.27
2022-10-31T00:28:22.599Z,0.28
2022-10-31T00:30:50.145Z,0.31
2022-10-31T00:33:17.375Z,0.35
2022-10-31T00:35:50.867Z,0.25
2022-10-31T00:38:18.295Z,0.26
2022-10-31T00:40:45.586Z,0.26
2022-10-31T00:43:12.953Z,0.34
2022-10-31T00:45:40.229Z,0.32
2022-10-31T00:48:07.731Z,0.34
2022-10-31T00:50:35.044Z,0.33
2022-10-31T00:53:04.039Z,0.36
2022-10-31T00:55:31.619Z,0.32
2022-10-31T00:58:00.610Z,0.35
2022-10-31T01:00:28.163Z,0.43
2022-10-31T01:02:55.454Z,0.40
2022-10-31T01:05:22.712Z,0.40
2022-10-31T01:07:50.133Z,0.42
2022-10-31T01:10:19.293Z,0.32
2022-10-31T01:12:48.797Z,0.36
2022-10-31T01:15:19.081Z,0.33
2022-10-31T01:17:46.378Z,0.36
2022-10-31T01:20:14.918Z,0.35
2022-10-31T01:22:42.279Z,0.29
2022-10-31T01:25:10.862Z,0.34
2022-10-31T01:27:39.637Z,0.39
2022-10-31T01:30:09.163Z,0.33
2022-10-31T01:32:36.519Z,0.33
2022-10-31T01:35:04.306Z,0.32
2022-10-31T01:37:32.378Z,0.31
2022-10-31T01:39:59.976Z,0.39
2022-10-31T01:42:27.224Z,0.36
2022-10-31T01:44:59.947Z,0.35
2022-10-31T01:47:47.135Z,0.31
2022-10-31T01:50:25.283Z,0.35
2022-10-31T01:52:53.697Z,0.36
2022-10-31T01:55:26.524Z,0.33
2022-10-31T01:58:02.420Z,0.30
2022-10-31T02:00:31.971Z,0.27
2022-10-31T02:03:01.129Z,0.25
2022-10-31T02:05:31.534Z,0.17
2022-10-31T02:08:03.772Z,0.18
2022-10-31T02:10:33.667Z,0.23
2022-10-31T02:13:04.132Z,0.09
2022-10-31T02:15:34.066Z,-0.06
2022-10-31T02:18:02.110Z,-0.12
2022-10-31T02:20:35.782Z,-0.16
2022-10-31T02:23:36.937Z,-0.19
2022-10-31T02:26:40.588Z,-0.28
2022-10-31T02:29:28.570Z,-0.36
2022-10-31T02:32:06.830Z,-0.46
2022-10-31T02:34:42.404Z,-0.34
2022-10-31T02:37:14.428Z,-0.40
2022-10-31T02:39:48.665Z,-0.39
2022-10-31T02:42:30.327Z,-0.37
2022-10-31T02:45:07.349Z,-0.37
2022-10-31T02:47:38.789Z,-0.49
2022-10-31T02:50:12.039Z,-0.47
2022-10-31T02:52:40.241Z,-0.56
2022-10-31T02:55:13.678Z,-0.60
2022-10-31T02:57:43.546Z,-0.62
2022-10-31T03:00:11.980Z,-0.64
2022-10-31T03:02:54.584Z,-0.59
2022-10-31T03:05:35.608Z,-0.54
2022-10-31T03:08:13.059Z,-0.57
2022-10-31T03:10:46.488Z,-0.60
2022-10-31T03:13:24.594Z,-0.63
2022-10-31T03:15:54.896Z,-0.60
2022-10-31T03:18:29.319Z,-0.61
2022-10-31T03:21:01.741Z,-0.54
2022-10-31T03:23:31.731Z,-0.62
2022-10-31T03:26:01.339Z,-0.63
2022-10-31T03:28:32.885Z,-0.60
2022-10-31T03:31:07.345Z,-0.58
2022-10-31T03:33:43.127Z,-0.56
2022-10-31T03:36:14.730Z,-0.50
2022-10-31T03:38:44.236Z,-0.54
2022-10-31T03:41:19.347Z,-0.63
2022-10-31T03:43:54.435Z,-0.52
2022-10-31T03:46:21.939Z,-0.47
2022-10-31T03:48:52.459Z,-0.46
2022-10-31T03:51:26.785Z,-0.45
2022-10-31T03:53:57.028Z,-0.42
2022-10-31T03:56:30.949Z,-0.47
2022-10-31T03:59:02.940Z,-0.44
2022-10-31T04:01:33.621Z,-0.49
2022-10-31T04:04:03.642Z,-0.50
2022-10-31T04:06:32.047Z,-0.52
2022-10-31T04:09:04.724Z,-0.52
2022-10-31T04:11:35.828Z,-0.51
2022-10-31T04:14:25.115Z,-0.50
2022-10-31T04:16:53.055Z,-0.47
2022-10-31T04:19:26.670Z,-0.39
2022-10-31T04:21:53.936Z,-0.48
2022-10-31T04:24:21.766Z,-0.51
2022-10-31T04:26:49.475Z,-0.44
2022-10-31T04:29:16.915Z,-0.42
2022-10-31T04:31:44.434Z,-0.46
2022-10-31T04:34:11.814Z,-0.48
2022-10-31T04:36:40.809Z,-0.52
2022-10-31T04:39:09.170Z,-0.57
2022-10-31T04:41:45.954Z,-0.61
2022-10-31T04:44:15.201Z,-0.54
2022-10-31T04:46:42.842Z,-0.57
2022-10-31T04:49:11.188Z,-0.56
2022-10-31T04:51:38.478Z,-0.50
2022-10-31T04:54:07.823Z,-0.48
2022-10-31T04:56:35.143Z,-0.54
2022-10-31T04:59:09.764Z,-0.45
2022-10-31T05:01:48.388Z,-0.34
2022-10-31T05:04:18.977Z,-0.42
2022-10-31T05:06:47.567Z,-0.50
2022-10-31T05:09:16.469Z,-0.46
2022-10-31T05:11:44.247Z,-0.45
2022-10-31T05:14:29.949Z,-0.42
2022-10-31T05:17:15.997Z,-0.42
2022-10-31T05:20:07.477Z,-0.45
2022-10-31T05:23:09.759Z,-0.39
2022-10-31T05:25:38.559Z,-0.37
2022-10-31T05:28:06.032Z,-0.41
2022-10-31T05:30:34.713Z,-0.41
2022-10-31T05:33:02.461Z,-0.38
2022-10-31T05:35:49.573Z,-0.30
2022-10-31T05:38:29.356Z,-0.27
2022-10-31T05:41:02.264Z,-0.35
2022-10-31T05:43:31.911Z,-0.43
2022-10-31T05:45:59.318Z,-0.43
2022-10-31T05:49:03.021Z,-0.48
2022-10-31T05:51:48.233Z,-0.36
2022-10-31T05:54:16.125Z,-0.31
2022-10-31T05:56:47.201Z,-0.24
2022-10-31T05:59:14.523Z,-0.18
2022-10-31T06:01:41.988Z,-0.07
2022-10-31T06:04:24.598Z,0.04
2022-10-31T06:06:52.203Z,0.08
2022-10-31T06:09:19.861Z,0.13
2022-10-31T06:11:48.495Z,0.16
2022-10-31T06:14:24.923Z,0.21
2022-10-31T06:16:56.044Z,0.26
2022-10-31T06:19:46.527Z,0.24
2022-10-31T06:22:18.334Z,0.23
2022-10-31T06:24:45.623Z,0.20
2022-10-31T06:27:27.764Z,0.25
2022-10-31T06:29:55.900Z,0.26
2022-10-31T06:32:31.098Z,0.26
2022-10-31T06:34:59.210Z,0.37
2022-10-31T06:37:26.422Z,0.45
2022-10-31T06:39:59.460Z,0.43
2022-10-31T06:42:28.307Z,0.41
2022-10-31T06:44:56.264Z,0.48
2022-10-31T06:48:15.627Z,0.51
2022-10-31T06:50:50.019Z,0.57
2022-10-31T06:53:17.596Z,0.57
2022-10-31T06:55:44.897Z,0.62
2022-10-31T06:58:14.713Z,0.62
2022-10-31T07:00:45.490Z,0.71
2022-10-31T07:03:14.822Z,0.82
2022-10-31T07:05:42.477Z,0.99
2022-10-31T07:08:13.646Z,1.08
2022-10-31T07:10:42.847Z,1.15
2022-10-31T07:13:13.704Z,1.27
2022-10-31T07:15:44.625Z,1.35
2022-10-31T07:18:13.515Z,1.43
2022-10-31T07:20:40.902Z,1.45
2022-10-31T07:23:09.922Z,1.50
2022-10-31T07:25:38.455Z,1.55
2022-10-31T07:28:10.922Z,1.58
2022-10-31T07:30:39.628Z,1.58
2022-10-31T07:33:08.354Z,1.62
2022-10-31T07:35:54.890Z,1.69
2022-10-31T07:38:24.965Z,1.71
2022-10-31T07:40:56.306Z,1.66
2022-10-31T07:43:24.727Z,1.67
2022-10-31T07:46:12.479Z,1.76
2022-10-31T07:49:00.130Z,1.84
2022-10-31T07:51:46.720Z,1.92
2022-10-31T07:54:32.641Z,2.01
2022-10-31T07:57:00.142Z,2.16
2022-10-31T07:59:28.384Z,2.28
2022-10-31T08:01:56.236Z,2.36
2022-10-31T08:04:33.984Z,2.36
2022-10-31T08:07:20.376Z,2.29
2022-10-31T08:09:55.518Z,2.29
2022-10-31T08:12:26.103Z,2.28
2022-10-31T08:14:54.212Z,2.23
2022-10-31T08:17:21.452Z,2.23
2022-10-31T08:19:58.104Z,2.17
2022-10-31T08:22:42.793Z,2.15
2022-10-31T08:25:11.620Z,2.09
2022-10-31T08:27:39.833Z,2.05
2022-10-31T08:30:11.812Z,2.03
2022-10-31T08:32:43.143Z,2.12
2022-10-31T08:35:30.194Z,2.20
2022-10-31T08:38:16.143Z,2.28
2022-10-31T08:40:43.822Z,2.36
2022-10-31T08:43:13.750Z,2.42
2022-10-31T08:45:41.731Z,2.44
2022-10-31T08:48:16.032Z,2.53
2022-10-31T08:50:46.239Z,2.68
2022-10-31T08:53:15.573Z,2.67
2022-10-31T08:55:44.989Z,2.74
2022-10-31T08:58:26.799Z,2.80
2022-10-31T09:01:01.650Z,2.81
2022-10-31T09:03:34.968Z,2.82
2022-10-31T09:06:06.865Z,2.80
2022-10-31T09:08:34.542Z,2.87
2022-10-31T09:11:02.930Z,2.91
2022-10-31T09:13:48.884Z,2.86
2022-10-31T09:16:36.205Z,2.80
2022-10-31T09:19:08.660Z,2.73
2022-10-31T09:21:40.273Z,2.73
2022-10-31T09:24:07.706Z,2.72
2022-10-31T09:26:35.264Z,2.71
2022-10-31T09:29:12.615Z,2.69
2022-10-31T09:31:44.728Z,2.77
2022-10-31T09:34:27.316Z,2.89
2022-10-31T09:37:13.250Z,2.98
2022-10-31T09:39:41.008Z,3.09
2022-10-31T09:42:41.461Z,3.18
2022-10-31T09:45:22.447Z,3.16
2022-10-31T09:48:05.648Z,3.09
2022-10-31T09:50:41.518Z,3.06
2022-10-31T09:53:37.037Z,3.10
2022-10-31T09:56:09.283Z,3.15
2022-10-31T09:58:42.794Z,3.14
2022-10-31T10:01:23.921Z,3.10
2022-10-31T10:03:56.228Z,3.06
2022-10-31T10:06:53.821Z,3.01
2022-10-31T10:09:41.034Z,3.04
2022-10-31T10:12:42.657Z,3.06
2022-10-31T10:15:34.832Z,3.03
2022-10-31T10:18:12.242Z,3.01
2022-10-31T10:20:58.693Z,3.08
2022-10-31T10:23:37.721Z,3.14
2022-10-31T10:26:18.598Z,3.21
2022-10-31T10:28:50.771Z,3.30
2022-10-31T10:31:23.060Z,3.45
2022-10-31T10:34:01.034Z,3.66
2022-10-31T10:36:35.745Z,3.76
2022-10-31T10:39:09.795Z,3.79
2022-10-31T10:41:42.924Z,3.73
2022-10-31T10:44:11.827Z,3.57
2022-10-31T10:47:01.592Z,3.39
2022-10-31T10:49:34.366Z,3.20
2022-10-31T10:55:05.396Z,3.02
2022-10-31T10:57:56.191Z,3.08
2022-10-31T11:00:25.361Z,3.17
2022-10-31T11:02:53.628Z,3.17
2022-10-31T11:05:27.085Z,3.17
2022-10-31T11:07:54.375Z,3.19
2022-10-31T11:10:21.861Z,3.17
2022-10-31T11:13:03.460Z,3.16
2022-10-31T11:15:35.002Z,3.19
2022-10-31T11:18:03.027Z,3.19
2022-10-31T11:20:33.079Z,3.17
2022-10-31T11:23:18.715Z,3.11
2022-10-31T11:25:55.984Z,3.05
2022-10-31T11:28:25.699Z,3.06
2022-10-31T11:30:55.653Z,3.04
2022-10-31T11:33:28.060Z,2.87
2022-10-31T11:35:58.112Z,2.83
2022-10-31T11:38:31.447Z,2.80
2022-10-31T11:41:05.252Z,2.82
2022-10-31T11:43:34.187Z,2.84
2022-10-31T11:46:10.403Z,2.86
2022-10-31T11:48:38.470Z,2.86
2022-10-31T11:51:06.345Z,2.87
2022-10-31T11:53:35.887Z,2.91
2022-10-31T11:56:07.072Z,2.87
2022-10-31T11:58:35.719Z,2.90
2022-10-31T12:01:02.918Z,2.89
2022-10-31T12:03:56.048Z,2.88
2022-10-31T12:06:27.034Z,2.77
2022-10-31T12:08:54.296Z,2.72
2022-10-31T12:11:45.459Z,2.71
2022-10-31T12:14:26.854Z,2.63
2022-10-31T12:16:59.275Z,2.61
2022-10-31T12:19:37.498Z,2.56
2022-10-31T12:22:14.317Z,2.60
2022-10-31T12:25:05.612Z,2.57
2022-10-31T12:27:48.065Z,2.65
2022-10-31T12:30:21.727Z,2.64
2022-10-31T12:33:15.093Z,2.63
2022-10-31T12:35:48.257Z,2.52
2022-10-31T12:38:37.473Z,2.55
2022-10-31T12:41:21.515Z,2.56
2022-10-31T12:43:57.314Z,2.63
2022-10-31T12:46:54.760Z,2.54
2022-10-31T12:49:38.144Z,2.64
2022-10-31T12:52:19.914Z,2.58
2022-10-31T12:55:04.661Z,2.56
2022-10-31T12:57:37.282Z,2.43
2022-10-31T13:00:11.970Z,2.29
2022-10-31T13:02:47.693Z,2.23
2022-10-31T13:05:20.781Z,2.17
2022-10-31T13:07:54.596Z,2.15
2022-10-31T13:10:26.977Z,2.13
2022-10-31T13:12:59.610Z,2.16
2022-10-31T13:15:28.198Z,2.22
2022-10-31T13:17:58.856Z,2.23
2022-10-31T13:20:29.586Z,2.28
2022-10-31T13:23:13.507Z,2.30
2022-10-31T13:25:55.206Z,2.35
2022-10-31T13:28:29.259Z,2.39
2022-10-31T13:30:56.743Z,2.44
2022-10-31T13:33:30.444Z,2.49
2022-10-31T13:36:10.741Z,2.45
2022-10-31T13:38:42.982Z,2.44
2022-10-31T13:41:32.295Z,2.55
2022-10-31T13:44:04.393Z,2.58
2022-10-31T13:46:39.612Z,2.61
2022-10-31T13:52:15.025Z,2.65
2022-10-31T13:54:45.188Z,2.65
2022-10-31T13:57:19.818Z,2.65
2022-10-31T13:59:52.908Z,2.63
2022-10-31T14:02:27.393Z,2.65
2022-10-31T14:04:59.253Z,2.66
2022-10-31T14:07:29.451Z,2.66
2022-10-31T14:10:00.668Z,2.68
2022-10-31T14:12:32.834Z,2.71
2022-10-31T14:15:06.115Z,2.69
2022-10-31T14:17:45.800Z,2.69
2022-10-31T14:20:41.251Z,2.68
2022-10-31T14:23:35.451Z,2.64
2022-10-31T14:26:22.567Z,2.66
2022-10-31T14:28:50.974Z,2.65
2022-10-31T14:31:36.843Z,2.63
2022-10-31T14:34:24.231Z,2.64
2022-10-31T14:37:11.704Z,2.64
2022-10-31T14:39:48.756Z,2.60
2022-10-31T14:42:34.157Z,2.55
2022-10-31T14:45:18.137Z,2.57
2022-10-31T14:47:56.242Z,2.58
2022-10-31T14:50:33.870Z,2.61
2022-10-31T14:53:04.858Z,2.65
2022-10-31T14:55:34.507Z,2.65
2022-10-31T14:58:05.379Z,2.65
2022-10-31T15:00:34.228Z,2.67
2022-10-31T15:03:13.438Z,2.64
2022-10-31T15:05:48.705Z,2.65
2022-10-31T15:08:31.974Z,2.66
2022-10-31T15:11:04.877Z,2.67
2022-10-31T15:13:32.470Z,2.69
2022-10-31T15:16:00.343Z,2.71
2022-10-31T15:18:29.922Z,2.73
2022-10-31T15:20:58.017Z,2.74
2022-10-31T15:23:27.011Z,2.73
2022-10-31T15:26:01.731Z,2.73
2022-10-31T15:28:29.228Z,2.72
2022-10-31T15:30:58.877Z,2.70
2022-10-31T15:33:32.409Z,2.68
2022-10-31T15:36:05.526Z,2.69
2022-10-31T15:38:33.900Z,2.68
2022-10-31T15:41:05.774Z,2.69
2022-10-31T15:43:36.990Z,2.72
2022-10-31T15:46:07.676Z,2.73
2022-10-31T15:48:36.128Z,2.79
2022-10-31T15:51:03.963Z,2.74
2022-10-31T15:53:44.100Z,2.74
2022-10-31T15:56:22.621Z,2.72
2022-10-31T15:58:53.442Z,2.73
2022-10-31T16:01:23.578Z,2.67
2022-10-31T16:04:06.415Z,2.60
2022-10-31T16:06:36.585Z,2.62
2022-10-31T16:09:05.519Z,2.62
2022-10-31T16:11:37.626Z,2.59
2022-10-31T16:14:08.288Z,2.61
2022-10-31T16:16:42.655Z,2.57
2022-10-31T16:19:20.581Z,2.67
2022-10-31T16:21:50.284Z,2.67
2022-10-31T16:24:23.668Z,2.73
2022-10-31T16:26:55.260Z,2.69
2022-10-31T16:29:28.541Z,2.72
2022-10-31T16:31:55.966Z,2.71
2022-10-31T16:34:26.940Z,2.70
2022-10-31T16:36:54.753Z,2.66
2022-10-31T16:39:22.492Z,2.67
2022-10-31T16:41:56.044Z,2.67
2022-10-31T16:44:25.078Z,2.67
2022-10-31T16:47:10.944Z,2.66
2022-10-31T16:49:38.270Z,2.64
2022-10-31T16:52:06.789Z,2.60
2022-10-31T16:54:34.234Z,2.61
2022-10-31T16:57:04.996Z,2.60
2022-10-31T16:59:33.883Z,2.59
2022-10-31T17:02:02.386Z,2.63
2022-10-31T17:04:29.942Z,2.66
2022-10-31T17:06:57.266Z,2.66
2022-10-31T17:09:24.460Z,2.64
2022-10-31T17:11:54.063Z,2.63
2022-10-31T17:14:23.102Z,2.61
2022-10-31T17:16:50.653Z,2.62
2022-10-31T17:19:18.007Z,2.63
2022-10-31T17:21:45.282Z,2.63
2022-10-31T17:24:14.334Z,2.65
2022-10-31T17:26:42.327Z,2.63
2022-10-31T17:29:10.220Z,2.63
2022-10-31T17:31:39.492Z,2.65
2022-10-31T17:34:08.687Z,2.60
2022-10-31T17:36:36.405Z,2.55
2022-10-31T17:39:05.948Z,2.54
2022-10-31T17:41:33.549Z,2.48
2022-10-31T17:44:00.879Z,2.47
2022-10-31T17:46:28.964Z,2.48
2022-10-31T17:48:58.275Z,2.48
2022-10-31T17:51:25.535Z,2.49
2022-10-31T17:53:52.778Z,2.48
2022-10-31T17:56:20.204Z,2.38
2022-10-31T17:58:47.694Z,2.41
2022-10-31T18:01:17.555Z,2.39
2022-10-31T18:03:45.453Z,2.39
2022-10-31T18:06:16.837Z,2.34
2022-10-31T18:08:44.844Z,2.35
2022-10-31T18:11:16.920Z,2.34
2022-10-31T18:13:44.344Z,2.30
2022-10-31T18:16:13.599Z,2.21
2022-10-31T18:18:41.277Z,2.31
2022-10-31T18:21:08.881Z,2.32
2022-10-31T18:23:37.656Z,2.32
2022-10-31T18:26:05.370Z,2.30
2022-10-31T18:28:33.623Z,2.25
2022-10-31T18:31:01.125Z,2.27
2022-10-31T18:33:28.743Z,2.27
2022-10-31T18:35:56.483Z,2.27
2022-10-31T18:38:24.000Z,2.26
2022-10-31T18:40:53.016Z,2.25
2022-10-31T18:43:20.386Z,2.22
2022-10-31T18:45:50.262Z,2.18
2022-10-31T18:48:19.807Z,2.20
2022-10-31T18:50:47.226Z,2.21
2022-10-31T18:53:14.918Z,2.22
2022-10-31T18:55:45.740Z,2.21
2022-10-31T18:58:18.910Z,2.19
2022-10-31T19:00:46.541Z,2.19
2022-10-31T19:03:14.015Z,2.22
2022-10-31T19:05:41.437Z,2.20
2022-10-31T19:08:09.197Z,2.15
2022-10-31T19:10:37.820Z,2.18
2022-10-31T19:13:05.427Z,2.14
2022-10-31T19:15:35.273Z,2.14
2022-10-31T19:18:02.713Z,2.15
2022-10-31T19:20:30.221Z,2.17
2022-10-31T19:22:57.457Z,2.18
2022-10-31T19:25:25.157Z,2.20
2022-10-31T19:27:52.557Z,2.19
2022-10-31T19:30:21.403Z,2.20
2022-10-31T19:32:54.831Z,2.20
2022-10-31T19:35:22.132Z,2.21
2022-10-31T19:37:49.496Z,2.22
2022-10-31T19:40:17.051Z,2.21
2022-10-31T19:42:44.627Z,2.19
2022-10-31T19:45:11.825Z,2.18
2022-10-31T19:47:39.231Z,2.18
2022-10-31T19:50:10.275Z,2.12
2022-10-31T19:52:37.584Z,2.12
2022-10-31T19:55:05.965Z,2.11
2022-10-31T19:58:00.359Z,2.10
2022-10-31T20:00:21.673Z,2.10
2022-10-31T20:02:48.949Z,2.12
2022-10-31T20:05:17.870Z,2.14
2022-10-31T20:07:45.179Z,2.14
2022-10-31T20:10:12.589Z,2.13
2022-10-31T20:12:39.809Z,2.16
2022-10-31T20:15:07.591Z,2.14
2022-10-31T20:17:35.177Z,2.13
2022-10-31T20:20:07.314Z,2.13
2022-10-31T20:22:36.938Z,2.11
2022-10-31T20:25:05.121Z,2.03
2022-10-31T20:27:32.510Z,2.03
2022-10-31T20:30:00.311Z,2.04
2022-10-31T20:32:27.618Z,2.06
2022-10-31T20:34:54.978Z,2.09
2022-10-31T20:37:22.236Z,2.04
2022-10-31T20:39:54.076Z,2.06
2022-10-31T20:42:24.036Z,2.05
2022-10-31T20:44:51.284Z,2.04
2022-10-31T20:47:22.007Z,2.05
2022-10-31T20:49:52.251Z,2.04
2022-10-31T20:52:19.581Z,1.97
2022-10-31T20:54:46.920Z,1.90
2022-10-31T20:57:15.621Z,1.89
2022-10-31T20:59:42.778Z,1.86
2022-10-31T21:02:10.562Z,1.84
2022-10-31T21:04:37.943Z,1.82
2022-10-31T21:07:05.248Z,1.78
2022-10-31T21:09:32.621Z,1.76
2022-10-31T21:11:59.894Z,1.78
2022-10-31T21:14:28.535Z,1.74
2022-10-31T21:16:55.929Z,1.71
2022-10-31T21:19:23.440Z,1.70
2022-10-31T21:21:50.858Z,1.69
2022-10-31T21:24:21.001Z,1.61
2022-10-31T21:26:51.361Z,1.68
2022-10-31T21:29:20.046Z,1.64
2022-10-31T21:31:49.339Z,1.67
2022-10-31T21:34:17.228Z,1.67
2022-10-31T21:36:44.946Z,1.68
2022-10-31T21:39:12.358Z,1.67
2022-10-31T21:41:39.761Z,1.67
2022-10-31T21:44:07.303Z,1.68
2022-10-31T21:46:34.736Z,1.69
2022-10-31T21:49:04.757Z,1.66
2022-10-31T21:51:34.666Z,1.68
2022-10-31T21:54:20.980Z,1.71
2022-10-31T21:56:48.637Z,1.69
2022-10-31T21:59:15.926Z,1.70
2022-10-31T22:01:43.274Z,1.68
2022-10-31T22:04:12.027Z,1.65
2022-10-31T22:06:39.383Z,1.62
2022-10-31T22:09:08.380Z,1.56
2022-10-31T22:11:36.067Z,1.51
2022-10-31T22:14:03.948Z,1.48
2022-10-31T22:16:34.429Z,1.41
2022-10-31T22:19:05.664Z,1.47
2022-10-31T22:21:39.350Z,1.46
2022-10-31T22:24:07.941Z,1.37
2022-10-31T22:26:35.852Z,1.44
2022-10-31T22:29:05.821Z,1.43
2022-10-31T22:31:34.332Z,1.44
2022-10-31T22:34:01.659Z,1.46
2022-10-31T22:36:30.368Z,1.41
2022-10-31T22:38:59.461Z,1.45
2022-10-31T22:41:28.782Z,1.34
2022-10-31T22:43:57.294Z,1.40
2022-10-31T22:46:26.278Z,1.34
2022-10-31T22:48:55.440Z,1.30
2022-10-31T22:51:24.109Z,1.36
2022-10-31T22:53:52.191Z,1.36
2022-10-31T22:56:22.085Z,1.34
2022-10-31T22:58:49.924Z,1.39
2022-10-31T23:01:18.899Z,1.39
2022-10-31T23:03:47.193Z,1.40
2022-10-31T23:06:16.764Z,1.36
2022-10-31T23:08:44.894Z,1.38
2022-10-31T23:11:21.887Z,1.36
2022-10-31T23:14:09.742Z,1.34
2022-10-31T23:16:41.782Z,1.29
2022-10-31T23:19:10.591Z,1.28
2022-10-31T23:21:56.060Z,1.29
2022-10-31T23:24:25.896Z,1.25
2022-10-31T23:27:11.038Z,1.25
2022-10-31T23:29:41.434Z,1.30
2022-10-31T23:32:11.447Z,1.31
2022-10-31T23:34:39.065Z,1.35
2022-10-31T23:39:35.110Z,1.26
2022-10-31T23:42:03.949Z,1.21
2022-10-31T23:44:31.229Z,1.23
2022-10-31T23:46:58.580Z,1.24
2022-10-31T23:49:25.886Z,1.26
2022-10-31T23:51:53.208Z,1.24
2022-10-31T23:54:20.460Z,1.23
2022-10-31T23:56:47.678Z,1.22
2022-10-31T23:59:16.511Z,1.24
